sensor_id;sensor_type;location;lat;lon;timestamp;pressure;altitude;pressure_sealevel;temperature;humidity
75497;BME280;64074;47.540;19.072;2023-12-22T00:01:14;98232.44;;;7.55;84.97
75497;BME280;64074;47.540;19.072;2023-12-22T00:04:30;98202.31;;;7.53;82.23
75497;BME280;64074;47.540;19.072;2023-12-22T00:07:51;98226.59;;;7.53;83.29
75497;BME280;64074;47.540;19.072;2023-12-22T00:11:19;98220.53;;;7.56;82.96
75497;BME280;64074;47.540;19.072;2023-12-22T00:14:41;98233.25;;;7.77;81.00
75497;BME280;64074;47.540;19.072;2023-12-22T00:17:51;98261.59;;;7.83;79.48
75497;BME280;64074;47.540;19.072;2023-12-22T00:21:20;98250.75;;;7.91;79.06
75497;BME280;64074;47.540;19.072;2023-12-22T00:24:41;98257.69;;;8.01;77.53
75497;BME280;64074;47.540;19.072;2023-12-22T00:28:02;98289.47;;;8.16;78.53
75497;BME280;64074;47.540;19.072;2023-12-22T00:31:24;98292.44;;;8.02;78.67
75497;BME280;64074;47.540;19.072;2023-12-22T00:34:42;98306.28;;;7.92;78.60
75497;BME280;64074;47.540;19.072;2023-12-22T00:38:03;98320.63;;;7.84;77.91
75497;BME280;64074;47.540;19.072;2023-12-22T00:41:27;98319.47;;;7.94;78.89
75497;BME280;64074;47.540;19.072;2023-12-22T00:44:47;98329.75;;;7.71;80.40
75497;BME280;64074;47.540;19.072;2023-12-22T00:48:07;98328.22;;;7.61;82.58
75497;BME280;64074;47.540;19.072;2023-12-22T00:51:31;98331.09;;;7.56;82.83
75497;BME280;64074;47.540;19.072;2023-12-22T00:54:45;98344.94;;;7.46;83.32
75497;BME280;64074;47.540;19.072;2023-12-22T00:57:53;98355.59;;;7.34;84.22
75497;BME280;64074;47.540;19.072;2023-12-22T01:01:00;98340.88;;;7.31;84.55
75497;BME280;64074;47.540;19.072;2023-12-22T01:04:11;98308.53;;;7.61;83.64
75497;BME280;64074;47.540;19.072;2023-12-22T01:07:22;98309.72;;;7.51;83.71
75497;BME280;64074;47.540;19.072;2023-12-22T01:10:26;98284.63;;;7.21;82.86
75497;BME280;64074;47.540;19.072;2023-12-22T01:13:33;98299.19;;;7.29;82.65
75497;BME280;64074;47.540;19.072;2023-12-22T01:16:40;98322.06;;;7.52;82.18
75497;BME280;64074;47.540;19.072;2023-12-22T01:19:50;98327.31;;;7.49;82.54
75497;BME280;64074;47.540;19.072;2023-12-22T01:23:22;98329.25;;;7.39;82.23
75497;BME280;64074;47.540;19.072;2023-12-22T01:26:32;98332.25;;;7.47;82.31
75497;BME280;64074;47.540;19.072;2023-12-22T01:29:52;98338.31;;;7.44;81.84
75497;BME280;64074;47.540;19.072;2023-12-22T01:33:10;98341.94;;;7.48;82.52
75497;BME280;64074;47.540;19.072;2023-12-22T01:36:15;98358.09;;;7.48;82.49
75497;BME280;64074;47.540;19.072;2023-12-22T01:39:24;98342.88;;;7.43;81.81
75497;BME280;64074;47.540;19.072;2023-12-22T01:42:40;98313.53;;;7.50;81.37
75497;BME280;64074;47.540;19.072;2023-12-22T01:46:09;98309.06;;;7.54;80.89
75497;BME280;64074;47.540;19.072;2023-12-22T01:49:29;98332.47;;;7.62;79.33
75497;BME280;64074;47.540;19.072;2023-12-22T01:52:57;98332.00;;;7.69;77.66
75497;BME280;64074;47.540;19.072;2023-12-22T01:56:10;98319.13;;;7.75;76.55
75497;BME280;64074;47.540;19.072;2023-12-22T01:59:24;98309.63;;;7.68;76.32
75497;BME280;64074;47.540;19.072;2023-12-22T02:02:34;98284.88;;;7.66;75.89
75497;BME280;64074;47.540;19.072;2023-12-22T02:05:48;98260.44;;;7.71;74.92
75497;BME280;64074;47.540;19.072;2023-12-22T02:09:05;98245.19;;;7.67;74.51
75497;BME280;64074;47.540;19.072;2023-12-22T02:12:26;98248.69;;;7.67;73.81
75497;BME280;64074;47.540;19.072;2023-12-22T02:16:01;98247.78;;;7.63;72.93
75497;BME280;64074;47.540;19.072;2023-12-22T02:22:54;98249.69;;;7.63;71.60
75497;BME280;64074;47.540;19.072;2023-12-22T02:26:48;98221.97;;;7.54;71.97
75497;BME280;64074;47.540;19.072;2023-12-22T02:29:35;98240.34;;;7.60;72.48
75497;BME280;64074;47.540;19.072;2023-12-22T02:32:47;98236.78;;;7.48;72.77
75497;BME280;64074;47.540;19.072;2023-12-22T02:36:03;98220.47;;;7.44;72.75
75497;BME280;64074;47.540;19.072;2023-12-22T02:39:14;98255.66;;;7.48;73.40
75497;BME280;64074;47.540;19.072;2023-12-22T02:42:45;98293.72;;;7.46;73.45
75497;BME280;64074;47.540;19.072;2023-12-22T02:46:16;98284.84;;;7.46;73.94
75497;BME280;64074;47.540;19.072;2023-12-22T02:49:23;98300.91;;;7.33;75.03
75497;BME280;64074;47.540;19.072;2023-12-22T02:52:31;98303.72;;;7.37;75.20
75497;BME280;64074;47.540;19.072;2023-12-22T02:55:39;98313.41;;;7.38;75.93
75497;BME280;64074;47.540;19.072;2023-12-22T02:58:50;98269.59;;;7.50;75.88
75497;BME280;64074;47.540;19.072;2023-12-22T03:02:00;98266.38;;;7.27;76.31
75497;BME280;64074;47.540;19.072;2023-12-22T03:05:27;98274.47;;;7.27;77.30
75497;BME280;64074;47.540;19.072;2023-12-22T03:08:43;98298.25;;;7.16;78.35
75497;BME280;64074;47.540;19.072;2023-12-22T03:12:10;98281.66;;;7.05;78.84
75497;BME280;64074;47.540;19.072;2023-12-22T03:15:31;98286.41;;;7.08;79.19
75497;BME280;64074;47.540;19.072;2023-12-22T03:27:09;98293.41;;;7.01;77.08
75497;BME280;64074;47.540;19.072;2023-12-22T03:30:19;98314.94;;;7.09;74.62
75497;BME280;64074;47.540;19.072;2023-12-22T03:33:29;98331.25;;;7.13;73.33
75497;BME280;64074;47.540;19.072;2023-12-22T03:36:52;98336.16;;;7.20;72.35
75497;BME280;64074;47.540;19.072;2023-12-22T03:39:56;98356.09;;;7.19;72.03
75497;BME280;64074;47.540;19.072;2023-12-22T03:43:03;98365.31;;;7.18;71.40
75497;BME280;64074;47.540;19.072;2023-12-22T03:46:13;98349.94;;;7.18;70.61
75497;BME280;64074;47.540;19.072;2023-12-22T03:49:20;98354.53;;;7.18;69.56
75497;BME280;64074;47.540;19.072;2023-12-22T03:52:30;98382.28;;;7.18;68.17
75497;BME280;64074;47.540;19.072;2023-12-22T03:55:45;98371.50;;;7.18;66.88
75497;BME280;64074;47.540;19.072;2023-12-22T03:58:56;98394.47;;;7.16;65.27
75497;BME280;64074;47.540;19.072;2023-12-22T04:02:05;98387.66;;;7.27;65.18
75497;BME280;64074;47.540;19.072;2023-12-22T04:05:15;98387.50;;;7.15;64.60
75497;BME280;64074;47.540;19.072;2023-12-22T04:08:25;98391.69;;;6.95;65.42
75497;BME280;64074;47.540;19.072;2023-12-22T04:11:51;98399.75;;;7.03;65.51
75497;BME280;64074;47.540;19.072;2023-12-22T04:14:59;98403.09;;;7.00;64.85
75497;BME280;64074;47.540;19.072;2023-12-22T04:18:06;98405.47;;;7.02;64.95
75497;BME280;64074;47.540;19.072;2023-12-22T04:21:13;98417.50;;;6.96;63.90
75497;BME280;64074;47.540;19.072;2023-12-22T04:24:23;98422.25;;;7.07;63.63
75497;BME280;64074;47.540;19.072;2023-12-22T04:27:38;98412.28;;;6.99;64.42
75497;BME280;64074;47.540;19.072;2023-12-22T04:31:05;98428.75;;;6.81;66.81
75497;BME280;64074;47.540;19.072;2023-12-22T04:34:20;98486.09;;;6.64;68.38
75497;BME280;64074;47.540;19.072;2023-12-22T04:37:37;98456.91;;;6.40;69.62
75497;BME280;64074;47.540;19.072;2023-12-22T04:41:05;98439.59;;;6.15;71.03
75497;BME280;64074;47.540;19.072;2023-12-22T04:44:22;98446.41;;;5.81;72.08
75497;BME280;64074;47.540;19.072;2023-12-22T04:47:36;98432.47;;;5.79;72.50
75497;BME280;64074;47.540;19.072;2023-12-22T04:51:16;98434.22;;;5.75;72.60
75497;BME280;64074;47.540;19.072;2023-12-22T04:54:28;98446.69;;;5.71;72.80
75497;BME280;64074;47.540;19.072;2023-12-22T04:57:43;98452.19;;;5.66;72.72
75497;BME280;64074;47.540;19.072;2023-12-22T05:00:52;98459.06;;;5.50;72.98
75497;BME280;64074;47.540;19.072;2023-12-22T05:04:22;98459.91;;;5.59;72.88
75497;BME280;64074;47.540;19.072;2023-12-22T05:07:49;98456.09;;;5.60;72.32
75497;BME280;64074;47.540;19.072;2023-12-22T05:11:08;98473.03;;;5.61;72.01
75497;BME280;64074;47.540;19.072;2023-12-22T05:14:28;98465.41;;;5.54;72.43
75497;BME280;64074;47.540;19.072;2023-12-22T05:17:53;98466.16;;;5.46;72.04
75497;BME280;64074;47.540;19.072;2023-12-22T05:21:13;98479.97;;;5.31;72.38
75497;BME280;64074;47.540;19.072;2023-12-22T05:24:34;98479.84;;;5.36;72.20
75497;BME280;64074;47.540;19.072;2023-12-22T05:27:57;98475.81;;;5.24;72.43
75497;BME280;64074;47.540;19.072;2023-12-22T05:31:19;98487.97;;;5.22;72.64
75497;BME280;64074;47.540;19.072;2023-12-22T05:34:40;98505.72;;;5.32;72.41
75497;BME280;64074;47.540;19.072;2023-12-22T05:37:54;98508.44;;;5.32;72.31
75497;BME280;64074;47.540;19.072;2023-12-22T05:40:58;98504.88;;;5.22;71.98
75497;BME280;64074;47.540;19.072;2023-12-22T05:44:08;98511.53;;;5.25;71.65
75497;BME280;64074;47.540;19.072;2023-12-22T05:47:27;98502.25;;;5.31;71.06
75497;BME280;64074;47.540;19.072;2023-12-22T05:50:46;98506.97;;;5.25;71.35
75497;BME280;64074;47.540;19.072;2023-12-22T05:54:09;98503.78;;;5.23;71.31
75497;BME280;64074;47.540;19.072;2023-12-22T05:57:32;98504.50;;;5.15;70.91
75497;BME280;64074;47.540;19.072;2023-12-22T06:00:39;98503.78;;;5.23;69.72
75497;BME280;64074;47.540;19.072;2023-12-22T06:03:49;98509.47;;;5.22;68.93
75497;BME280;64074;47.540;19.072;2023-12-22T06:07:03;98510.69;;;5.38;66.39
75497;BME280;64074;47.540;19.072;2023-12-22T06:10:08;98500.22;;;5.59;64.28
75497;BME280;64074;47.540;19.072;2023-12-22T06:13:12;98526.72;;;5.74;64.07
75497;BME280;64074;47.540;19.072;2023-12-22T06:16:16;98533.38;;;5.77;63.37
75497;BME280;64074;47.540;19.072;2023-12-22T06:19:28;98533.38;;;5.77;62.46
75497;BME280;64074;47.540;19.072;2023-12-22T06:22:49;98551.28;;;5.81;62.08
75497;BME280;64074;47.540;19.072;2023-12-22T06:25:57;98561.25;;;5.81;61.16
75497;BME280;64074;47.540;19.072;2023-12-22T06:29:02;98569.50;;;5.84;61.46
75497;BME280;64074;47.540;19.072;2023-12-22T06:32:13;98563.88;;;5.95;59.96
75497;BME280;64074;47.540;19.072;2023-12-22T06:35:40;98570.88;;;5.96;59.77
75497;BME280;64074;47.540;19.072;2023-12-22T06:38:55;98591.00;;;5.84;58.49
75497;BME280;64074;47.540;19.072;2023-12-22T06:42:04;98585.38;;;5.95;58.77
75497;BME280;64074;47.540;19.072;2023-12-22T06:45:16;98581.31;;;5.97;58.27
75497;BME280;64074;47.540;19.072;2023-12-22T06:48:20;98586.06;;;6.00;58.20
75497;BME280;64074;47.540;19.072;2023-12-22T06:51:30;98586.59;;;6.11;57.08
75497;BME280;64074;47.540;19.072;2023-12-22T06:54:42;98588.66;;;6.14;56.95
75497;BME280;64074;47.540;19.072;2023-12-22T06:57:52;98606.31;;;5.98;56.27
75497;BME280;64074;47.540;19.072;2023-12-22T07:01:29;98589.63;;;6.18;55.74
75497;BME280;64074;47.540;19.072;2023-12-22T07:12:25;98621.22;;;6.04;55.83
75497;BME280;64074;47.540;19.072;2023-12-22T07:15:42;98606.88;;;6.17;56.42
75497;BME280;64074;47.540;19.072;2023-12-22T07:19:07;98607.63;;;6.09;56.06
75497;BME280;64074;47.540;19.072;2023-12-22T07:22:25;98613.19;;;6.12;55.62
75497;BME280;64074;47.540;19.072;2023-12-22T07:25:45;98618.00;;;6.24;55.14
75497;BME280;64074;47.540;19.072;2023-12-22T07:29:06;98609.00;;;6.29;55.17
75497;BME280;64074;47.540;19.072;2023-12-22T07:32:26;98615.00;;;6.26;54.47
75497;BME280;64074;47.540;19.072;2023-12-22T07:35:40;98612.97;;;6.31;55.09
75497;BME280;64074;47.540;19.072;2023-12-22T07:38:45;98610.91;;;6.28;54.94
75497;BME280;64074;47.540;19.072;2023-12-22T07:41:54;98607.75;;;6.35;54.92
75497;BME280;64074;47.540;19.072;2023-12-22T07:45:10;98619.31;;;6.35;55.19
75497;BME280;64074;47.540;19.072;2023-12-22T07:48:31;98604.44;;;6.38;55.02
75497;BME280;64074;47.540;19.072;2023-12-22T07:51:41;98625.56;;;6.44;55.32
75497;BME280;64074;47.540;19.072;2023-12-22T07:54:51;98616.38;;;6.45;54.85
75497;BME280;64074;47.540;19.072;2023-12-22T07:57:56;98622.59;;;6.55;54.84
75497;BME280;64074;47.540;19.072;2023-12-22T08:01:03;98629.09;;;6.62;54.73
75497;BME280;64074;47.540;19.072;2023-12-22T08:04:08;98624.59;;;6.80;54.31
75497;BME280;64074;47.540;19.072;2023-12-22T08:07:16;98615.28;;;6.95;54.12
75497;BME280;64074;47.540;19.072;2023-12-22T08:10:26;98628.56;;;6.91;54.46
75497;BME280;64074;47.540;19.072;2023-12-22T08:13:47;98630.31;;;6.87;55.33
75497;BME280;64074;47.540;19.072;2023-12-22T08:17:06;98618.16;;;6.98;54.90
75497;BME280;64074;47.540;19.072;2023-12-22T08:20:17;98618.94;;;6.99;54.94
75497;BME280;64074;47.540;19.072;2023-12-22T08:23:50;98639.38;;;7.00;53.64
75497;BME280;64074;47.540;19.072;2023-12-22T08:27:11;98635.59;;;7.18;53.35
75497;BME280;64074;47.540;19.072;2023-12-22T08:30:38;98641.59;;;7.06;53.46
75497;BME280;64074;47.540;19.072;2023-12-22T08:33:55;98634.31;;;7.07;53.25
75497;BME280;64074;47.540;19.072;2023-12-22T08:37:11;98637.66;;;7.13;53.16
75497;BME280;64074;47.540;19.072;2023-12-22T08:40:38;98626.44;;;7.19;52.40
75497;BME280;64074;47.540;19.072;2023-12-22T08:44:04;98628.31;;;7.19;52.83
75497;BME280;64074;47.540;19.072;2023-12-22T08:47:29;98656.25;;;7.23;51.99
75497;BME280;64074;47.540;19.072;2023-12-22T08:50:46;98647.38;;;7.22;51.74
75497;BME280;64074;47.540;19.072;2023-12-22T08:54:14;98656.25;;;7.23;52.01
75497;BME280;64074;47.540;19.072;2023-12-22T08:57:32;98663.84;;;7.29;52.39
75497;BME280;64074;47.540;19.072;2023-12-22T09:01:05;98646.88;;;7.29;52.28
75497;BME280;64074;47.540;19.072;2023-12-22T09:04:22;98669.56;;;7.36;52.65
75497;BME280;64074;47.540;19.072;2023-12-22T09:07:43;98658.78;;;7.36;54.11
75497;BME280;64074;47.540;19.072;2023-12-22T09:11:02;98667.81;;;7.40;54.03
75497;BME280;64074;47.540;19.072;2023-12-22T09:14:24;98671.78;;;7.26;54.68
75497;BME280;64074;47.540;19.072;2023-12-22T09:17:45;98666.25;;;7.39;55.23
75497;BME280;64074;47.540;19.072;2023-12-22T09:21:01;98665.31;;;7.61;55.04
75497;BME280;64074;47.540;19.072;2023-12-22T09:24:12;98652.63;;;7.45;55.05
75497;BME280;64074;47.540;19.072;2023-12-22T09:27:16;98647.25;;;7.53;55.36
75497;BME280;64074;47.540;19.072;2023-12-22T09:30:26;98640.41;;;7.64;55.14
75497;BME280;64074;47.540;19.072;2023-12-22T09:33:47;98631.19;;;7.65;54.65
75497;BME280;64074;47.540;19.072;2023-12-22T09:37:08;98634.38;;;7.67;53.94
75497;BME280;64074;47.540;19.072;2023-12-22T09:40:18;98646.59;;;7.56;54.69
75497;BME280;64074;47.540;19.072;2023-12-22T09:43:49;98629.47;;;7.52;55.05
75497;BME280;64074;47.540;19.072;2023-12-22T09:46:59;98648.34;;;7.61;55.57
75497;BME280;64074;47.540;19.072;2023-12-22T09:50:07;98668.66;;;7.50;55.64
75497;BME280;64074;47.540;19.072;2023-12-22T09:53:15;98658.34;;;7.60;55.63
75497;BME280;64074;47.540;19.072;2023-12-22T09:56:26;98663.09;;;7.63;55.50
75497;BME280;64074;47.540;19.072;2023-12-22T09:59:39;98655.97;;;7.85;55.52
75497;BME280;64074;47.540;19.072;2023-12-22T10:03:07;98661.66;;;7.92;57.11
75497;BME280;64074;47.540;19.072;2023-12-22T10:06:35;98669.44;;;7.85;56.15
75497;BME280;64074;47.540;19.072;2023-12-22T10:09:49;98667.38;;;7.90;57.55
75497;BME280;64074;47.540;19.072;2023-12-22T10:12:58;98652.00;;;7.99;56.68
75497;BME280;64074;47.540;19.072;2023-12-22T10:16:06;98659.13;;;7.87;56.84
75497;BME280;64074;47.540;19.072;2023-12-22T10:19:17;98652.31;;;7.72;55.79
75497;BME280;64074;47.540;19.072;2023-12-22T10:22:34;98667.56;;;7.77;55.98
75497;BME280;64074;47.540;19.072;2023-12-22T10:25:45;98638.03;;;7.54;55.81
75497;BME280;64074;47.540;19.072;2023-12-22T10:29:12;98631.53;;;7.81;55.97
75497;BME280;64074;47.540;19.072;2023-12-22T10:32:22;98631.19;;;8.00;55.88
75497;BME280;64074;47.540;19.072;2023-12-22T10:35:53;98623.28;;;7.78;55.88
75497;BME280;64074;47.540;19.072;2023-12-22T10:39:10;98625.81;;;7.83;54.34
75497;BME280;64074;47.540;19.072;2023-12-22T10:42:43;98618.06;;;7.72;56.13
75497;BME280;64074;47.540;19.072;2023-12-22T10:46:05;98592.19;;;7.71;56.56
75497;BME280;64074;47.540;19.072;2023-12-22T10:49:25;98595.31;;;7.91;55.97
75497;BME280;64074;47.540;19.072;2023-12-22T10:52:35;98583.31;;;7.71;55.43
75497;BME280;64074;47.540;19.072;2023-12-22T10:56:06;98586.16;;;7.75;55.61
75497;BME280;64074;47.540;19.072;2023-12-22T10:59:23;98593.91;;;7.67;54.99
75497;BME280;64074;47.540;19.072;2023-12-22T11:03:08;98612.81;;;7.59;55.85
75497;BME280;64074;47.540;19.072;2023-12-22T11:06:19;98580.28;;;7.72;55.72
75497;BME280;64074;47.540;19.072;2023-12-22T11:09:42;98621.69;;;7.85;55.84
75497;BME280;64074;47.540;19.072;2023-12-22T11:13:02;98625.34;;;7.81;55.31
75497;BME280;64074;47.540;19.072;2023-12-22T11:20:16;98620.88;;;7.85;54.97
75497;BME280;64074;47.540;19.072;2023-12-22T11:23:46;98607.19;;;8.07;55.36
75497;BME280;64074;47.540;19.072;2023-12-22T11:27:09;98588.56;;;8.31;54.87
75497;BME280;64074;47.540;19.072;2023-12-22T11:30:36;98606.84;;;8.17;54.87
75497;BME280;64074;47.540;19.072;2023-12-22T11:33:58;98577.03;;;8.05;54.34
75497;BME280;64074;47.540;19.072;2023-12-22T11:37:23;98575.56;;;8.16;54.05
75497;BME280;64074;47.540;19.072;2023-12-22T11:40:43;98576.06;;;8.10;54.80
75497;BME280;64074;47.540;19.072;2023-12-22T11:43:58;98582.44;;;8.05;54.20
75497;BME280;64074;47.540;19.072;2023-12-22T11:47:16;98586.88;;;8.18;54.10
75497;BME280;64074;47.540;19.072;2023-12-22T11:50:46;98579.22;;;8.20;53.00
75497;BME280;64074;47.540;19.072;2023-12-22T11:54:00;98591.84;;;7.82;52.79
75497;BME280;64074;47.540;19.072;2023-12-22T12:00:52;98589.28;;;8.02;53.01
75497;BME280;64074;47.540;19.072;2023-12-22T12:04:06;98566.91;;;7.85;52.50
75497;BME280;64074;47.540;19.072;2023-12-22T12:07:43;98614.06;;;7.96;52.16
75497;BME280;64074;47.540;19.072;2023-12-22T12:10:57;98617.22;;;7.89;52.34
75497;BME280;64074;47.540;19.072;2023-12-22T12:14:09;98611.03;;;7.89;52.74
75497;BME280;64074;47.540;19.072;2023-12-22T12:17:33;98621.66;;;8.02;52.88
75497;BME280;64074;47.540;19.072;2023-12-22T12:20:40;98611.47;;;8.08;53.47
75497;BME280;64074;47.540;19.072;2023-12-22T12:23:50;98623.69;;;8.23;52.37
75497;BME280;64074;47.540;19.072;2023-12-22T12:27:05;98614.16;;;8.25;53.22
75497;BME280;64074;47.540;19.072;2023-12-22T12:30:23;98617.31;;;8.27;52.74
75497;BME280;64074;47.540;19.072;2023-12-22T12:33:45;98598.66;;;7.88;54.87
75497;BME280;64074;47.540;19.072;2023-12-22T12:37:06;98602.41;;;8.13;53.90
75497;BME280;64074;47.540;19.072;2023-12-22T12:40:28;98558.19;;;7.88;55.38
75497;BME280;64074;47.540;19.072;2023-12-22T12:43:45;98591.88;;;7.73;55.99
75497;BME280;64074;47.540;19.072;2023-12-22T12:46:54;98598.69;;;7.27;57.81
75497;BME280;64074;47.540;19.072;2023-12-22T12:50:28;98642.53;;;6.54;63.56
75497;BME280;64074;47.540;19.072;2023-12-22T12:53:50;98691.50;;;5.39;73.58
75497;BME280;64074;47.540;19.072;2023-12-22T12:57:17;98691.06;;;5.09;78.46
75497;BME280;64074;47.540;19.072;2023-12-22T13:00:37;98684.09;;;5.08;78.78
75497;BME280;64074;47.540;19.072;2023-12-22T13:03:52;98685.09;;;4.99;79.30
75497;BME280;64074;47.540;19.072;2023-12-22T13:07:23;98706.47;;;5.04;78.12
75497;BME280;64074;47.540;19.072;2023-12-22T13:10:35;98698.22;;;5.00;76.96
75497;BME280;64074;47.540;19.072;2023-12-22T13:13:45;98740.22;;;4.96;78.07
75497;BME280;64074;47.540;19.072;2023-12-22T13:17:01;98740.78;;;4.93;80.31
75497;BME280;64074;47.540;19.072;2023-12-22T13:20:32;98700.81;;;4.78;80.34
75497;BME280;64074;47.540;19.072;2023-12-22T13:24:09;98691.56;;;4.98;82.14
75497;BME280;64074;47.540;19.072;2023-12-22T13:27:23;98676.31;;;4.93;81.63
75497;BME280;64074;47.540;19.072;2023-12-22T13:30:40;98668.75;;;4.95;81.64
75497;BME280;64074;47.540;19.072;2023-12-22T13:37:25;98646.91;;;5.02;79.41
75497;BME280;64074;47.540;19.072;2023-12-22T13:40:45;98639.13;;;5.14;77.95
75497;BME280;64074;47.540;19.072;2023-12-22T13:44:05;98643.69;;;5.27;74.74
75497;BME280;64074;47.540;19.072;2023-12-22T13:47:25;98633.72;;;5.64;74.71
75497;BME280;64074;47.540;19.072;2023-12-22T13:51:00;98629.31;;;5.68;73.96
75497;BME280;64074;47.540;19.072;2023-12-22T13:54:07;98636.78;;;5.71;72.21
75497;BME280;64074;47.540;19.072;2023-12-22T13:57:20;98624.25;;;5.88;71.28
75497;BME280;64074;47.540;19.072;2023-12-22T14:00:29;98614.06;;;5.99;69.14
75497;BME280;64074;47.540;19.072;2023-12-22T14:03:39;98619.97;;;6.10;68.13
75497;BME280;64074;47.540;19.072;2023-12-22T14:06:51;98619.94;;;6.32;67.41
75497;BME280;64074;47.540;19.072;2023-12-22T14:10:17;98620.41;;;6.26;65.22
75497;BME280;64074;47.540;19.072;2023-12-22T14:13:26;98657.81;;;6.36;64.02
75497;BME280;64074;47.540;19.072;2023-12-22T14:16:49;98686.31;;;5.42;73.85
75497;BME280;64074;47.540;19.072;2023-12-22T14:20:19;98657.63;;;4.88;78.13
75497;BME280;64074;47.540;19.072;2023-12-22T14:23:33;98657.16;;;4.72;78.55
75497;BME280;64074;47.540;19.072;2023-12-22T14:26:53;98660.81;;;4.49;78.65
75497;BME280;64074;47.540;19.072;2023-12-22T14:30:08;98679.94;;;4.75;78.43
75497;BME280;64074;47.540;19.072;2023-12-22T14:33:12;98660.03;;;4.76;78.09
75497;BME280;64074;47.540;19.072;2023-12-22T14:36:23;98638.63;;;4.71;78.07
75497;BME280;64074;47.540;19.072;2023-12-22T14:39:36;98658.03;;;4.68;76.10
75497;BME280;64074;47.540;19.072;2023-12-22T14:42:46;98649.59;;;5.02;74.71
75497;BME280;64074;47.540;19.072;2023-12-22T14:45:56;98672.38;;;5.04;74.49
75497;BME280;64074;47.540;19.072;2023-12-22T14:49:03;98688.84;;;5.11;73.34
75497;BME280;64074;47.540;19.072;2023-12-22T14:52:06;98686.56;;;5.18;71.64
75497;BME280;64074;47.540;19.072;2023-12-22T14:55:18;98694.19;;;5.39;70.50
75497;BME280;64074;47.540;19.072;2023-12-22T14:58:27;98690.22;;;5.50;70.40
75497;BME280;64074;47.540;19.072;2023-12-22T15:01:38;98714.47;;;5.59;69.02
75497;BME280;64074;47.540;19.072;2023-12-22T15:05:03;98713.69;;;5.58;67.95
75497;BME280;64074;47.540;19.072;2023-12-22T15:08:31;98719.63;;;5.69;66.63
75497;BME280;64074;47.540;19.072;2023-12-22T15:11:53;98713.75;;;5.67;65.66
75497;BME280;64074;47.540;19.072;2023-12-22T15:15:11;98705.06;;;5.70;64.92
75497;BME280;64074;47.540;19.072;2023-12-22T15:18:39;98661.78;;;5.71;64.03
75497;BME280;64074;47.540;19.072;2023-12-22T15:21:57;98696.31;;;5.78;63.27
75497;BME280;64074;47.540;19.072;2023-12-22T15:25:19;98720.81;;;5.76;63.88
75497;BME280;64074;47.540;19.072;2023-12-22T15:28:44;98721.50;;;5.68;61.39
75497;BME280;64074;47.540;19.072;2023-12-22T15:32:06;98735.19;;;5.72;61.25
75497;BME280;64074;47.540;19.072;2023-12-22T15:35:28;98716.41;;;5.80;62.09
75497;BME280;64074;47.540;19.072;2023-12-22T15:38:49;98707.88;;;5.65;63.14
75497;BME280;64074;47.540;19.072;2023-12-22T15:42:11;98726.31;;;5.57;64.65
75497;BME280;64074;47.540;19.072;2023-12-22T15:45:33;98724.06;;;5.51;64.80
75497;BME280;64074;47.540;19.072;2023-12-22T15:48:53;98718.19;;;5.49;65.23
75497;BME280;64074;47.540;19.072;2023-12-22T15:52:17;98747.34;;;5.55;64.59
75497;BME280;64074;47.540;19.072;2023-12-22T15:55:38;98755.91;;;5.44;64.45
75497;BME280;64074;47.540;19.072;2023-12-22T15:59:05;98776.19;;;5.64;64.20
75497;BME280;64074;47.540;19.072;2023-12-22T16:02:24;98781.50;;;5.55;63.96
75497;BME280;64074;47.540;19.072;2023-12-22T16:05:47;98762.16;;;5.67;63.29
75497;BME280;64074;47.540;19.072;2023-12-22T16:27:53;98781.97;;;5.57;65.67
75497;BME280;64074;47.540;19.072;2023-12-22T16:31:08;98771.84;;;5.54;65.60
75497;BME280;64074;47.540;19.072;2023-12-22T16:34:27;98768.03;;;5.41;65.27
75497;BME280;64074;47.540;19.072;2023-12-22T16:37:39;98765.16;;;5.51;65.90
75497;BME280;64074;47.540;19.072;2023-12-22T16:41:16;98764.88;;;5.53;66.68
75497;BME280;64074;47.540;19.072;2023-12-22T16:44:30;98775.63;;;5.53;66.49
75497;BME280;64074;47.540;19.072;2023-12-22T16:47:40;98766.75;;;5.52;66.37
75497;BME280;64074;47.540;19.072;2023-12-22T16:51:17;98767.84;;;5.51;66.59
75497;BME280;64074;47.540;19.072;2023-12-22T16:54:39;98777.94;;;5.46;66.17
75497;BME280;64074;47.540;19.072;2023-12-22T16:57:55;98781.28;;;5.51;66.82
75497;BME280;64074;47.540;19.072;2023-12-22T17:01:03;98773.00;;;5.62;66.76
75497;BME280;64074;47.540;19.072;2023-12-22T17:04:33;98777.00;;;5.64;66.73
75497;BME280;64074;47.540;19.072;2023-12-22T17:08:03;98777.97;;;5.68;66.62
75497;BME280;64074;47.540;19.072;2023-12-22T17:11:30;98771.94;;;5.49;65.03
75497;BME280;64074;47.540;19.072;2023-12-22T17:14:50;98770.81;;;5.77;65.05
75497;BME280;64074;47.540;19.072;2023-12-22T17:18:03;98765.56;;;5.59;64.09
75497;BME280;64074;47.540;19.072;2023-12-22T17:21:30;98765.53;;;5.72;64.53
75497;BME280;64074;47.540;19.072;2023-12-22T17:24:34;98754.06;;;5.67;64.45
75497;BME280;64074;47.540;19.072;2023-12-22T17:27:42;98781.50;;;5.55;65.37
75497;BME280;64074;47.540;19.072;2023-12-22T17:30:52;98785.19;;;5.32;67.51
75497;BME280;64074;47.540;19.072;2023-12-22T17:34:02;98788.25;;;5.52;68.21
75497;BME280;64074;47.540;19.072;2023-12-22T17:37:18;98808.97;;;5.24;69.89
75497;BME280;64074;47.540;19.072;2023-12-22T17:40:35;98821.56;;;5.10;71.89
75497;BME280;64074;47.540;19.072;2023-12-22T17:43:45;98811.19;;;4.90;74.73
75497;BME280;64074;47.540;19.072;2023-12-22T17:46:53;98800.88;;;4.64;77.10
75497;BME280;64074;47.540;19.072;2023-12-22T17:50:04;98787.72;;;4.49;77.82
75497;BME280;64074;47.540;19.072;2023-12-22T17:53:14;98775.72;;;4.60;78.22
75497;BME280;64074;47.540;19.072;2023-12-22T17:56:17;98775.94;;;4.64;78.23
75497;BME280;64074;47.540;19.072;2023-12-22T17:59:28;98758.31;;;4.58;79.42
75497;BME280;64074;47.540;19.072;2023-12-22T18:02:49;98761.59;;;4.55;79.71
75497;BME280;64074;47.540;19.072;2023-12-22T18:06:05;98779.50;;;4.59;79.47
75497;BME280;64074;47.540;19.072;2023-12-22T18:09:33;98767.47;;;4.57;79.44
75497;BME280;64074;47.540;19.072;2023-12-22T18:12:53;98789.06;;;4.66;78.36